sensor_id;sensor_type;location;lat;lon;timestamp;pressure;altitude;pressure_sealevel;temperature;humidity
54882;BME280;40775;51.448;4.742;2024-03-07T00:00:13;102505.09;;;6.43;100.00
54882;BME280;40775;51.448;4.742;2024-03-07T00:02:50;102501.28;;;6.38;100.00
54882;BME280;40775;51.448;4.742;2024-03-07T00:05:20;102503.56;;;6.46;100.00
54882;BME280;40775;51.448;4.742;2024-03-07T00:07:48;102506.59;;;6.39;100.00
54882;BME280;40775;51.448;4.742;2024-03-07T00:10:15;102507.41;;;6.38;100.00
54882;BME280;40775;51.448;4.742;2024-03-07T00:12:44;102508.59;;;6.43;100.00
54882;BME280;40775;51.448;4.742;2024-03-07T00:15:12;102502.19;;;6.38;100.00
54882;BME280;40775;51.448;4.742;2024-03-07T00:17:41;102506.03;;;6.30;100.00
54882;BME280;40775;51.448;4.742;2024-03-07T00:20:09;102507.13;;;6.20;100.00
54882;BME280;40775;51.448;4.742;2024-03-07T00:22:41;102510.03;;;6.12;100.00
54882;BME280;40775;51.448;4.742;2024-03-07T00:25:09;102504.22;;;6.16;100.00
54882;BME280;40775;51.448;4.742;2024-03-07T00:27:37;102500.00;;;6.18;100.00
54882;BME280;40775;51.448;4.742;2024-03-07T00:30:06;102509.84;;;6.09;100.00
54882;BME280;40775;51.448;4.742;2024-03-07T00:32:36;102507.75;;;6.03;100.00
54882;BME280;40775;51.448;4.742;2024-03-07T00:35:07;102503.22;;;6.01;100.00
54882;BME280;40775;51.448;4.742;2024-03-07T00:37:36;102500.41;;;5.98;100.00
54882;BME280;40775;51.448;4.742;2024-03-07T00:40:03;102503.72;;;5.95;100.00
54882;BME280;40775;51.448;4.742;2024-03-07T00:42:31;102499.59;;;5.99;100.00
54882;BME280;40775;51.448;4.742;2024-03-07T00:44:58;102505.81;;;6.01;100.00
54882;BME280;40775;51.448;4.742;2024-03-07T00:47:25;102502.41;;;6.02;100.00
54882;BME280;40775;51.448;4.742;2024-03-07T00:49:52;102506.53;;;6.11;100.00
54882;BME280;40775;51.448;4.742;2024-03-07T00:52:19;102509.03;;;6.10;100.00
54882;BME280;40775;51.448;4.742;2024-03-07T00:54:46;102499.22;;;6.06;100.00
54882;BME280;40775;51.448;4.742;2024-03-07T00:57:13;102510.34;;;6.03;100.00
54882;BME280;40775;51.448;4.742;2024-03-07T00:59:41;102497.09;;;6.00;100.00
54882;BME280;40775;51.448;4.742;2024-03-07T01:02:08;102501.63;;;6.03;100.00
54882;BME280;40775;51.448;4.742;2024-03-07T01:04:36;102498.59;;;5.97;100.00
54882;BME280;40775;51.448;4.742;2024-03-07T01:07:03;102500.81;;;5.91;100.00
54882;BME280;40775;51.448;4.742;2024-03-07T01:09:30;102496.56;;;5.79;100.00
54882;BME280;40775;51.448;4.742;2024-03-07T01:11:57;102498.56;;;5.70;100.00
54882;BME280;40775;51.448;4.742;2024-03-07T01:14:26;102495.34;;;5.74;100.00
54882;BME280;40775;51.448;4.742;2024-03-07T01:16:54;102493.97;;;5.79;100.00
54882;BME280;40775;51.448;4.742;2024-03-07T01:19:21;102496.25;;;5.75;100.00
54882;BME280;40775;51.448;4.742;2024-03-07T01:21:48;102501.00;;;5.80;100.00
54882;BME280;40775;51.448;4.742;2024-03-07T01:24:16;102493.16;;;5.67;100.00
54882;BME280;40775;51.448;4.742;2024-03-07T01:26:45;102491.03;;;5.62;100.00
54882;BME280;40775;51.448;4.742;2024-03-07T01:29:12;102484.53;;;5.55;100.00
54882;BME280;40775;51.448;4.742;2024-03-07T01:31:40;102484.53;;;5.55;100.00
54882;BME280;40775;51.448;4.742;2024-03-07T01:34:07;102478.00;;;5.48;100.00
54882;BME280;40775;51.448;4.742;2024-03-07T01:36:34;102480.81;;;5.51;100.00
54882;BME280;40775;51.448;4.742;2024-03-07T01:39:02;102480.28;;;5.44;100.00
54882;BME280;40775;51.448;4.742;2024-03-07T01:41:30;102472.97;;;5.38;100.00
54882;BME280;40775;51.448;4.742;2024-03-07T01:43:57;102470.47;;;5.40;100.00
54882;BME280;40775;51.448;4.742;2024-03-07T01:46:24;102474.47;;;5.35;100.00
54882;BME280;40775;51.448;4.742;2024-03-07T01:48:52;102477.28;;;5.38;100.00
54882;BME280;40775;51.448;4.742;2024-03-07T01:51:20;102473.66;;;5.36;100.00
54882;BME280;40775;51.448;4.742;2024-03-07T01:53:48;102477.88;;;5.34;100.00
54882;BME280;40775;51.448;4.742;2024-03-07T01:56:16;102469.06;;;5.32;100.00
54882;BME280;40775;51.448;4.742;2024-03-07T01:58:46;102471.66;;;5.32;100.00
54882;BME280;40775;51.448;4.742;2024-03-07T02:01:14;102463.44;;;5.39;100.00
54882;BME280;40775;51.448;4.742;2024-03-07T02:03:42;102469.16;;;5.33;100.00
54882;BME280;40775;51.448;4.742;2024-03-07T02:06:10;102464.06;;;5.35;100.00
54882;BME280;40775;51.448;4.742;2024-03-07T02:08:39;102466.06;;;5.39;100.00
54882;BME280;40775;51.448;4.742;2024-03-07T02:11:06;102463.44;;;5.39;100.00
54882;BME280;40775;51.448;4.742;2024-03-07T02:13:33;102454.63;;;5.37;100.00
54882;BME280;40775;51.448;4.742;2024-03-07T02:16:00;102451.44;;;5.41;100.00
54882;BME280;40775;51.448;4.742;2024-03-07T02:18:27;102454.03;;;5.41;100.00
54882;BME280;40775;51.448;4.742;2024-03-07T02:20:55;102445.81;;;5.35;100.00
54882;BME280;40775;51.448;4.742;2024-03-07T02:23:22;102446.81;;;5.37;100.00
54882;BME280;40775;51.448;4.742;2024-03-07T02:25:49;102444.03;;;5.34;100.00
54882;BME280;40775;51.448;4.742;2024-03-07T02:28:16;102440.31;;;5.30;100.00
54882;BME280;40775;51.448;4.742;2024-03-07T02:30:43;102443.13;;;5.33;100.00
54882;BME280;40775;51.448;4.742;2024-03-07T02:33:12;102438.41;;;5.27;100.00
54882;BME280;40775;51.448;4.742;2024-03-07T02:35:39;102434.50;;;5.21;100.00
54882;BME280;40775;51.448;4.742;2024-03-07T02:38:07;102435.16;;;5.18;100.00
54882;BME280;40775;51.448;4.742;2024-03-07T02:40:34;102440.25;;;5.17;100.00
54882;BME280;40775;51.448;4.742;2024-03-07T02:43:01;102437.34;;;5.12;100.00
54882;BME280;40775;51.448;4.742;2024-03-07T02:45:32;102430.34;;;5.11;100.00
54882;BME280;40775;51.448;4.742;2024-03-07T02:47:59;102425.94;;;5.10;100.00
54882;BME280;40775;51.448;4.742;2024-03-07T02:50:26;102426.75;;;5.09;100.00
54882;BME280;40775;51.448;4.742;2024-03-07T02:52:53;102424.25;;;5.11;100.00
54882;BME280;40775;51.448;4.742;2024-03-07T02:55:20;102427.94;;;5.01;100.00
54882;BME280;40775;51.448;4.742;2024-03-07T02:57:47;102425.53;;;5.04;100.00
54882;BME280;40775;51.448;4.742;2024-03-07T03:00:15;102428.72;;;5.00;100.00
54882;BME280;40775;51.448;4.742;2024-03-07T03:02:54;102428.94;;;5.03;100.00
54882;BME280;40775;51.448;4.742;2024-03-07T03:05:22;102424.31;;;4.99;100.00
54882;BME280;40775;51.448;4.742;2024-03-07T03:07:49;102419.63;;;4.93;100.00
54882;BME280;40775;51.448;4.742;2024-03-07T03:10:25;102424.56;;;4.90;100.00
54882;BME280;40775;51.448;4.742;2024-03-07T03:13:00;102427.78;;;4.86;100.00
54882;BME280;40775;51.448;4.742;2024-03-07T03:15:29;102428.44;;;4.95;100.00
54882;BME280;40775;51.448;4.742;2024-03-07T03:17:57;102418.06;;;4.84;100.00
54882;BME280;40775;51.448;4.742;2024-03-07T03:20:28;102410.47;;;4.87;100.00
54882;BME280;40775;51.448;4.742;2024-03-07T03:23:02;102419.06;;;4.86;100.00
54882;BME280;40775;51.448;4.742;2024-03-07T03:25:46;102410.25;;;4.84;100.00
54882;BME280;40775;51.448;4.742;2024-03-07T03:28:16;102411.94;;;4.83;100.00
54882;BME280;40775;51.448;4.742;2024-03-07T03:30:44;102397.94;;;4.81;100.00
54882;BME280;40775;51.448;4.742;2024-03-07T03:33:11;102405.34;;;4.88;100.00
54882;BME280;40775;51.448;4.742;2024-03-07T03:35:39;102395.53;;;4.84;100.00
54882;BME280;40775;51.448;4.742;2024-03-07T03:38:08;102407.84;;;4.87;100.00
54882;BME280;40775;51.448;4.742;2024-03-07T03:40:35;102397.25;;;4.84;100.00
54882;BME280;40775;51.448;4.742;2024-03-07T03:43:03;102409.34;;;4.83;100.00
54882;BME280;40775;51.448;4.742;2024-03-07T03:45:30;102397.03;;;4.81;100.00
54882;BME280;40775;51.448;4.742;2024-03-07T03:47:59;102407.56;;;4.82;100.00
54882;BME280;40775;51.448;4.742;2024-03-07T03:50:26;102404.31;;;4.73;100.00
54882;BME280;40775;51.448;4.742;2024-03-07T03:52:55;102406.44;;;4.79;100.00
54882;BME280;40775;51.448;4.742;2024-03-07T03:55:24;102403.16;;;4.81;100.00
54882;BME280;40775;51.448;4.742;2024-03-07T03:57:51;102406.34;;;4.77;100.00
54882;BME280;40775;51.448;4.742;2024-03-07T04:00:18;102394.13;;;4.76;100.00
54882;BME280;40775;51.448;4.742;2024-03-07T04:02:46;102395.81;;;4.76;100.00
54882;BME280;40775;51.448;4.742;2024-03-07T04:05:18;102405.66;;;4.80;100.00
54882;BME280;40775;51.448;4.742;2024-03-07T04:07:46;102395.81;;;4.76;100.00
54882;BME280;40775;51.448;4.742;2024-03-07T04:10:15;102388.03;;;4.76;100.00
54882;BME280;40775;51.448;4.742;2024-03-07T04:12:44;102392.13;;;4.72;100.00
54882;BME280;40775;51.448;4.742;2024-03-07T04:15:14;102398.31;;;4.74;100.00
54882;BME280;40775;51.448;4.742;2024-03-07T04:17:44;102396.63;;;4.75;100.00
54882;BME280;40775;51.448;4.742;2024-03-07T04:20:16;102391.22;;;4.72;100.00
54882;BME280;40775;51.448;4.742;2024-03-07T04:22:46;102391.00;;;4.69;100.00
54882;BME280;40775;51.448;4.742;2024-03-07T04:25:13;102388.50;;;4.70;100.00
54882;BME280;40775;51.448;4.742;2024-03-07T04:27:41;102394.31;;;4.66;100.00
54882;BME280;40775;51.448;4.742;2024-03-07T04:30:09;102382.41;;;4.70;100.00
54882;BME280;40775;51.448;4.742;2024-03-07T04:32:40;102384.91;;;4.68;100.00
54882;BME280;40775;51.448;4.742;2024-03-07T04:35:09;102389.66;;;4.62;100.00
54882;BME280;40775;51.448;4.742;2024-03-07T04:37:40;102387.97;;;4.62;100.00
54882;BME280;40775;51.448;4.742;2024-03-07T04:40:09;102390.16;;;4.56;100.00
54882;BME280;40775;51.448;4.742;2024-03-07T04:42:48;102391.75;;;4.54;100.00
54882;BME280;40775;51.448;4.742;2024-03-07T04:45:19;102393.44;;;4.54;100.00
54882;BME280;40775;51.448;4.742;2024-03-07T04:47:47;102391.75;;;4.54;100.00
54882;BME280;40775;51.448;4.742;2024-03-07T04:50:16;102388.34;;;4.55;100.00
54882;BME280;40775;51.448;4.742;2024-03-07T04:52:47;102390.34;;;4.59;100.00
54882;BME280;40775;51.448;4.742;2024-03-07T04:55:22;102386.84;;;4.59;100.00
54882;BME280;40775;51.448;4.742;2024-03-07T04:57:49;102391.53;;;4.51;100.00
54882;BME280;40775;51.448;4.742;2024-03-07T05:00:16;102389.94;;;4.53;100.00
54882;BME280;40775;51.448;4.742;2024-03-07T05:02:48;102390.16;;;4.56;100.00
54882;BME280;40775;51.448;4.742;2024-03-07T05:05:17;102388.81;;;4.50;100.00
54882;BME280;40775;51.448;4.742;2024-03-07T05:07:52;102386.53;;;4.54;100.00
54882;BME280;40775;51.448;4.742;2024-03-07T05:10:20;102388.66;;;4.60;100.00
54882;BME280;40775;51.448;4.742;2024-03-07T05:12:48;102394.44;;;4.56;100.00
54882;BME280;40775;51.448;4.742;2024-03-07T05:15:15;102380.66;;;4.57;100.00
54882;BME280;40775;51.448;4.742;2024-03-07T05:17:43;102391.06;;;4.57;100.00
54882;BME280;40775;51.448;4.742;2024-03-07T05:20:11;102391.34;;;4.61;100.00
54882;BME280;40775;51.448;4.742;2024-03-07T05:22:41;102387.53;;;4.56;100.00
54882;BME280;40775;51.448;4.742;2024-03-07T05:25:14;102384.94;;;4.56;100.00
54882;BME280;40775;51.448;4.742;2024-03-07T05:27:43;102377.34;;;4.59;100.00
54882;BME280;40775;51.448;4.742;2024-03-07T05:30:12;102378.94;;;4.57;100.00
54882;BME280;40775;51.448;4.742;2024-03-07T05:32:40;102378.75;;;4.54;100.00
54882;BME280;40775;51.448;4.742;2024-03-07T05:35:08;102375.66;;;4.60;100.00
54882;BME280;40775;51.448;4.742;2024-03-07T05:37:35;102378.94;;;4.57;100.00
54882;BME280;40775;51.448;4.742;2024-03-07T05:40:02;102377.94;;;4.55;100.00
54882;BME280;40775;51.448;4.742;2024-03-07T05:42:31;102379.06;;;4.59;100.00
54882;BME280;40775;51.448;4.742;2024-03-07T05:44:59;102381.53;;;4.57;100.00
54882;BME280;40775;51.448;4.742;2024-03-07T05:47:26;102374.13;;;4.50;100.00
54882;BME280;40775;51.448;4.742;2024-03-07T05:49:53;102383.41;;;4.47;100.00
54882;BME280;40775;51.448;4.742;2024-03-07T05:52:21;102377.91;;;4.42;100.00
54882;BME280;40775;51.448;4.742;2024-03-07T05:54:48;102371.69;;;4.40;100.00
54882;BME280;40775;51.448;4.742;2024-03-07T05:57:15;102376.41;;;4.46;100.00
54882;BME280;40775;51.448;4.742;2024-03-07T05:59:42;102377.31;;;4.46;100.00
54882;BME280;40775;51.448;4.742;2024-03-07T06:02:09;102372.91;;;4.45;100.00
54882;BME280;40775;51.448;4.742;2024-03-07T06:04:36;102370.31;;;4.45;100.00
54882;BME280;40775;51.448;4.742;2024-03-07T06:07:03;102371.69;;;4.40;100.00
54882;BME280;40775;51.448;4.742;2024-03-07T06:09:30;102361.41;;;4.42;100.00
54882;BME280;40775;51.448;4.742;2024-03-07T06:11:57;102364.91;;;4.42;100.00
54882;BME280;40775;51.448;4.742;2024-03-07T06:14:27;102371.69;;;4.40;100.00
54882;BME280;40775;51.448;4.742;2024-03-07T06:16:54;102370.22;;;4.44;100.00
54882;BME280;40775;51.448;4.742;2024-03-07T06:19:21;102375.50;;;4.45;100.00
54882;BME280;40775;51.448;4.742;2024-03-07T06:21:48;102375.31;;;4.42;100.00
54882;BME280;40775;51.448;4.742;2024-03-07T06:24:16;102377.34;;;4.34;100.00
54882;BME280;40775;51.448;4.742;2024-03-07T06:26:44;102376.44;;;4.34;100.00
54882;BME280;40775;51.448;4.742;2024-03-07T06:29:18;102378.47;;;4.38;100.00
54882;BME280;40775;51.448;4.742;2024-03-07T06:31:46;102373.84;;;4.34;100.00
54882;BME280;40775;51.448;4.742;2024-03-07T06:34:14;102370.56;;;4.37;100.00
54882;BME280;40775;51.448;4.742;2024-03-07T06:36:41;102381.66;;;4.34;100.00
54882;BME280;40775;51.448;4.742;2024-03-07T06:39:08;102378.25;;;4.35;100.00
54882;BME280;40775;51.448;4.742;2024-03-07T06:41:38;102376.22;;;4.31;100.00
54882;BME280;40775;51.448;4.742;2024-03-07T06:44:06;102382.53;;;4.34;100.00
54882;BME280;40775;51.448;4.742;2024-03-07T06:46:34;102395.69;;;6.74;100.00
54882;BME280;40775;51.448;4.742;2024-03-07T06:49:01;102395.06;;;8.77;100.00
54882;BME280;40775;51.448;4.742;2024-03-07T06:51:29;102379.47;;;9.84;100.00
54882;BME280;40775;51.448;4.742;2024-03-07T06:53:56;102373.50;;;10.62;100.00
54882;BME280;40775;51.448;4.742;2024-03-07T06:58:53;102359.72;;;11.50;100.00
54882;BME280;40775;51.448;4.742;2024-03-07T07:01:20;102346.72;;;11.75;100.00
54882;BME280;40775;51.448;4.742;2024-03-07T07:03:47;102343.91;;;11.91;100.00
54882;BME280;40775;51.448;4.742;2024-03-07T07:06:16;102348.94;;;12.07;100.00
54882;BME280;40775;51.448;4.742;2024-03-07T07:08:44;102344.13;;;12.20;100.00
54882;BME280;40775;51.448;4.742;2024-03-07T07:11:12;102349.03;;;12.33;100.00
54882;BME280;40775;51.448;4.742;2024-03-07T07:13:40;102334.56;;;12.46;100.00
54882;BME280;40775;51.448;4.742;2024-03-07T07:16:10;102339.94;;;12.49;100.00
54882;BME280;40775;51.448;4.742;2024-03-07T07:18:37;102339.34;;;12.57;100.00
54882;BME280;40775;51.448;4.742;2024-03-07T07:21:05;102339.72;;;12.66;100.00
54882;BME280;40775;51.448;4.742;2024-03-07T07:23:38;102338.19;;;12.73;100.00
54882;BME280;40775;51.448;4.742;2024-03-07T07:26:05;102341.03;;;12.79;100.00
54882;BME280;40775;51.448;4.742;2024-03-07T07:28:32;102344.81;;;12.87;100.00
54882;BME280;40775;51.448;4.742;2024-03-07T07:31:00;102338.94;;;12.94;100.00
54882;BME280;40775;51.448;4.742;2024-03-07T07:33:27;102341.72;;;12.99;100.00
54882;BME280;40775;51.448;4.742;2024-03-07T07:35:54;102329.63;;;13.06;100.00
54882;BME280;40775;51.448;4.742;2024-03-07T07:38:21;102339.53;;;13.13;100.00
54882;BME280;40775;51.448;4.742;2024-03-07T07:40:48;102333.63;;;13.18;100.00
54882;BME280;40775;51.448;4.742;2024-03-07T07:43:17;102331.16;;;13.23;100.00
54882;BME280;40775;51.448;4.742;2024-03-07T07:45:59;102328.75;;;13.30;100.00
54882;BME280;40775;51.448;4.742;2024-03-07T07:48:28;102328.94;;;13.37;100.00
54882;BME280;40775;51.448;4.742;2024-03-07T07:50:55;102326.41;;;13.40;100.00
54882;BME280;40775;51.448;4.742;2024-03-07T07:53:22;102327.47;;;13.45;100.00
54882;BME280;40775;51.448;4.742;2024-03-07T07:55:49;102325.81;;;13.48;100.00
54882;BME280;40775;51.448;4.742;2024-03-07T07:58:17;102317.97;;;13.50;100.00
54882;BME280;40775;51.448;4.742;2024-03-07T08:00:45;102313.63;;;13.52;100.00
54882;BME280;40775;51.448;4.742;2024-03-07T08:03:12;102317.31;;;13.57;100.00
54882;BME280;40775;51.448;4.742;2024-03-07T08:05:41;102308.53;;;13.58;100.00
54882;BME280;40775;51.448;4.742;2024-03-07T08:08:10;102304.16;;;13.58;100.00
54882;BME280;40775;51.448;4.742;2024-03-07T08:10:40;102306.88;;;13.61;100.00
54882;BME280;40775;51.448;4.742;2024-03-07T08:13:11;102306.94;;;13.63;100.00
54882;BME280;40775;51.448;4.742;2024-03-07T08:15:40;102304.44;;;13.68;100.00
54882;BME280;40775;51.448;4.742;2024-03-07T08:18:08;102298.22;;;13.66;100.00
54882;BME280;40775;51.448;4.742;2024-03-07T08:20:38;102297.41;;;13.68;100.00
54882;BME280;40775;51.448;4.742;2024-03-07T08:23:07;102302.75;;;13.70;100.00
54882;BME280;40775;51.448;4.742;2024-03-07T08:25:34;102304.63;;;13.74;100.00
54882;BME280;40775;51.448;4.742;2024-03-07T08:28:01;102294.13;;;13.75;100.00
54882;BME280;40775;51.448;4.742;2024-03-07T08:30:28;102294.22;;;13.78;100.00
54882;BME280;40775;51.448;4.742;2024-03-07T08:32:57;102289.03;;;13.81;100.00
54882;BME280;40775;51.448;4.742;2024-03-07T08:35:26;102286.25;;;13.77;100.00
54882;BME280;40775;51.448;4.742;2024-03-07T08:37:54;102284.56;;;13.79;100.00
54882;BME280;40775;51.448;4.742;2024-03-07T08:40:28;102283.75;;;13.81;100.00
54882;BME280;40775;51.448;4.742;2024-03-07T08:43:01;102278.44;;;13.80;100.00
54882;BME280;40775;51.448;4.742;2024-03-07T08:45:29;102277.63;;;13.82;100.00
54882;BME280;40775;51.448;4.742;2024-03-07T08:48:01;102275.75;;;13.78;100.00
54882;BME280;40775;51.448;4.742;2024-03-07T08:50:28;102279.41;;;13.83;100.00
54882;BME280;40775;51.448;4.742;2024-03-07T08:52:56;102274.13;;;13.83;100.00
54882;BME280;40775;51.448;4.742;2024-03-07T08:55:25;102277.66;;;13.84;100.00
54882;BME280;40775;51.448;4.742;2024-03-07T08:57:53;102274.13;;;13.83;100.00
54882;BME280;40775;51.448;4.742;2024-03-07T09:00:20;102271.56;;;13.86;100.00
54882;BME280;40775;51.448;4.742;2024-03-07T09:02:58;102274.13;;;13.83;100.00
54882;BME280;40775;51.448;4.742;2024-03-07T09:05:30;102263.56;;;13.83;100.00
54882;BME280;40775;51.448;4.742;2024-03-07T09:08:01;102262.63;;;13.81;100.00
54882;BME280;40775;51.448;4.742;2024-03-07T09:10:29;102263.53;;;13.82;100.00
54882;BME280;40775;51.448;4.742;2024-03-07T09:13:00;102259.94;;;13.80;100.00
54882;BME280;40775;51.448;4.742;2024-03-07T09:15:27;102260.78;;;13.79;100.00
54882;BME280;40775;51.448;4.742;2024-03-07T09:17:55;102259.09;;;13.81;100.00
54882;BME280;40775;51.448;4.742;2024-03-07T09:20:22;102251.03;;;13.76;100.00
54882;BME280;40775;51.448;4.742;2024-03-07T09:22:50;102257.97;;;13.73;100.00
54882;BME280;40775;51.448;4.742;2024-03-07T09:25:18;102261.59;;;13.76;100.00
54882;BME280;40775;51.448;4.742;2024-03-07T09:27:48;102259.81;;;13.75;100.00
54882;BME280;40775;51.448;4.742;2024-03-07T09:30:15;102250.28;;;13.80;100.00
54882;BME280;40775;51.448;4.742;2024-03-07T09:32:46;102244.16;;;13.81;100.00
54882;BME280;40775;51.448;4.742;2024-03-07T09:35:13;102247.56;;;13.77;100.00
54882;BME280;40775;51.448;4.742;2024-03-07T09:37:42;102244.88;;;13.76;100.00
54882;BME280;40775;51.448;4.742;2024-03-07T09:40:11;102245.75;;;13.76;100.00
54882;BME280;40775;51.448;4.742;2024-03-07T09:42:45;102246.56;;;13.74;100.00
54882;BME280;40775;51.448;4.742;2024-03-07T09:45:16;102245.81;;;13.78;100.00
54882;BME280;40775;51.448;4.742;2024-03-07T09:47:47;102242.09;;;13.71;100.00
54882;BME280;40775;51.448;4.742;2024-03-07T09:50:21;102245.75;;;13.76;100.00
54882;BME280;40775;51.448;4.742;2024-03-07T09:52:52;102241.50;;;13.81;100.00
54882;BME280;40775;51.448;4.742;2024-03-07T09:55:22;102239.81;;;13.83;100.00
54882;BME280;40775;51.448;4.742;2024-03-07T09:57:53;102241.47;;;13.80;100.00
54882;BME280;40775;51.448;4.742;2024-03-07T10:00:24;102250.25;;;13.79;100.00
54882;BME280;40775;51.448;4.742;2024-03-07T10:03:08;102245.03;;;13.82;100.00
54882;BME280;40775;51.448;4.742;2024-03-07T10:05:37;102245.94;;;13.82;100.00
54882;BME280;40775;51.448;4.742;2024-03-07T10:08:06;102245.94;;;13.82;100.00
54882;BME280;40775;51.448;4.742;2024-03-07T10:10:34;102235.38;;;13.82;100.00
54882;BME280;40775;51.448;4.742;2024-03-07T10:13:01;102230.88;;;13.78;100.00
54882;BME280;40775;51.448;4.742;2024-03-07T10:15:31;102230.09;;;13.82;100.00
54882;BME280;40775;51.448;4.742;2024-03-07T10:17:59;102232.56;;;13.76;100.00
54882;BME280;40775;51.448;4.742;2024-03-07T10:20:29;102226.44;;;13.77;100.00
54882;BME280;40775;51.448;4.742;2024-03-07T10:22:57;102229.03;;;13.76;100.00
54882;BME280;40775;51.448;4.742;2024-03-07T10:25:25;102231.72;;;13.77;100.00
54882;BME280;40775;51.448;4.742;2024-03-07T10:27:55;102228.41;;;13.84;100.00
54882;BME280;40775;51.448;4.742;2024-03-07T10:30:22;102225.72;;;13.83;100.00
54882;BME280;40775;51.448;4.742;2024-03-07T10:32:59;102219.78;;;13.91;100.00
54882;BME280;40775;51.448;4.742;2024-03-07T10:35:28;102213.75;;;13.96;100.00
54882;BME280;40775;51.448;4.742;2024-03-07T10:37:58;102212.00;;;13.96;100.00
54882;BME280;40775;51.448;4.742;2024-03-07T10:40:34;102214.44;;;13.88;100.00
54882;BME280;40775;51.448;4.742;2024-03-07T10:43:10;102214.50;;;13.91;100.00
54882;BME280;40775;51.448;4.742;2024-03-07T10:45:45;102208.25;;;13.88;100.00
54882;BME280;40775;51.448;4.742;2024-03-07T10:48:20;102202.09;;;13.87;100.00
54882;BME280;40775;51.448;4.742;2024-03-07T10:51:12;102196.88;;;13.90;100.00
54882;BME280;40775;51.448;4.742;2024-03-07T10:56:53;102210.09;;;13.90;100.00
54882;BME280;40775;51.448;4.742;2024-03-07T10:59:26;102204.72;;;13.87;100.00
54882;BME280;40775;51.448;4.742;2024-03-07T11:02:20;102203.78;;;13.85;100.00
54882;BME280;40775;51.448;4.742;2024-03-07T11:04:57;102207.31;;;13.86;100.00
54882;BME280;40775;51.448;4.742;2024-03-07T11:07:26;102197.81;;;13.92;100.00
54882;BME280;40775;51.448;4.742;2024-03-07T11:09:55;102195.09;;;13.89;100.00
54882;BME280;40775;51.448;4.742;2024-03-07T11:12:24;102195.25;;;13.96;100.00
54882;BME280;40775;51.448;4.742;2024-03-07T11:14:55;102181.31;;;14.00;100.00
54882;BME280;40775;51.448;4.742;2024-03-07T11:17:24;102177.91;;;14.04;100.00
54882;BME280;40775;51.448;4.742;2024-03-07T11:19:51;102173.47;;;14.03;100.00
54882;BME280;40775;51.448;4.742;2024-03-07T11:22:31;102177.03;;;14.03;100.00
54882;BME280;40775;51.448;4.742;2024-03-07T11:25:06;102176.03;;;14.00;100.00
54882;BME280;40775;51.448;4.742;2024-03-07T11:27:39;102170.84;;;14.03;100.00
54882;BME280;40775;51.448;4.742;2024-03-07T11:30:07;102169.06;;;14.02;100.00
54882;BME280;40775;51.448;4.742;2024-03-07T11:32:40;102157.59;;;14.01;100.00
54882;BME280;40775;51.448;4.742;2024-03-07T11:35:12;102159.38;;;14.02;100.00
54882;BME280;40775;51.448;4.742;2024-03-07T11:37:45;102160.19;;;14.00;100.00
54882;BME280;40775;51.448;4.742;2024-03-07T11:42:54;102154.09;;;14.02;100.00
54882;BME280;40775;51.448;4.742;2024-03-07T11:45:32;102148.88;;;14.04;100.00
54882;BME280;40775;51.448;4.742;2024-03-07T11:48:12;102135.41;;;13.95;100.00
54882;BME280;40775;51.448;4.742;2024-03-07T11:50:40;102140.00;;;14.02;100.00
54882;BME280;40775;51.448;4.742;2024-03-07T11:53:09;102134.66;;;13.99;100.00
54882;BME280;40775;51.448;4.742;2024-03-07T11:55:38;102135.66;;;14.04;100.00
54882;BME280;40775;51.448;4.742;2024-03-07T12:00:44;102122.47;;;14.04;100.00
54882;BME280;40775;51.448;4.742;2024-03-07T12:03:19;102121.66;;;14.06;100.00
54882;BME280;40775;51.448;4.742;2024-03-07T12:05:49;102119.97;;;14.10;100.00
54882;BME280;40775;51.448;4.742;2024-03-07T12:08:19;102109.41;;;14.10;100.00
54882;BME280;40775;51.448;4.742;2024-03-07T12:10:51;102106.81;;;14.11;100.00
54882;BME280;40775;51.448;4.742;2024-03-07T12:13:23;102101.34;;;14.04;100.00
54882;BME280;40775;51.448;4.742;2024-03-07T12:15:51;102108.44;;;14.06;100.00
54882;BME280;40775;51.448;4.742;2024-03-07T12:18:20;102106.72;;;14.08;100.00
54882;BME280;40775;51.448;4.742;2024-03-07T12:20:49;102093.59;;;14.11;100.00
54882;BME280;40775;51.448;4.742;2024-03-07T12:23:26;102095.34;;;14.11;100.00
54882;BME280;40775;51.448;4.742;2024-03-07T12:26:04;102092.75;;;14.12;100.00
54882;BME280;40775;51.448;4.742;2024-03-07T12:28:32;102088.13;;;14.04;100.00
54882;BME280;40775;51.448;4.742;2024-03-07T12:31:02;102088.25;;;14.08;100.00
54882;BME280;40775;51.448;4.742;2024-03-07T12:33:30;102078.63;;;14.10;100.00
54882;BME280;40775;51.448;4.742;2024-03-07T12:36:02;102076.59;;;14.00;100.00
54882;BME280;40775;51.448;4.742;2024-03-07T12:38:37;102065.97;;;13.97;100.00
54882;BME280;40775;51.448;4.742;2024-03-07T12:41:09;102067.91;;;14.04;100.00
54882;BME280;40775;51.448;4.742;2024-03-07T12:43:44;102063.59;;;14.08;100.00
54882;BME280;40775;51.448;4.742;2024-03-07T12:46:14;102058.38;;;14.11;100.00
54882;BME280;40775;51.448;4.742;2024-03-07T12:48:43;102058.53;;;14.17;100.00
54882;BME280;40775;51.448;4.742;2024-03-07T12:51:13;102053.38;;;14.23;100.00
54882;BME280;40775;51.448;4.742;2024-03-07T12:53:46;102044.47;;;14.18;100.00
54882;BME280;40775;51.448;4.742;2024-03-07T12:56:14;102042.59;;;14.14;100.00
54882;BME280;40775;51.448;4.742;2024-03-07T12:58:47;102034.72;;;14.15;100.00
54882;BME280;40775;51.448;4.742;2024-03-07T13:01:17;102037.41;;;14.17;100.00
54882;BME280;40775;51.448;4.742;2024-03-07T13:03:46;102036.50;;;14.16;100.00
54882;BME280;40775;51.448;4.742;2024-03-07T13:06:14;102041.00;;;14.20;100.00